Time;durP1;ratioP1;P1;durP2;ratioP2;P2;SDS_P1;SDS_P2;PMS_P1;PMS_P2;Temp;Humidity;BMP_temperature;BMP_pressure;BME280_temperature;BME280_humidity;BME280_pressure;Samples;Min_cycle;Max_cycle;Signal;HPM_P1;HPM_P2
2022/06/16 00:00:16;;;;;;;;;;;;;;;18.24;100.00;95848.84;1031685;28;19925;-72
2022/06/16 00:00:47;;;;;;;;;;;;;;;18.22;100.00;95847.56;1027600;28;19929;-72
2022/06/16 00:01:18;;;;;;;;;;;;;;;18.18;100.00;95852.72;1028456;28;19920;-70
2022/06/16 00:01:48;;;;;;;;;;;;;;;18.14;100.00;95847.25;1036081;28;20302;-72
2022/06/16 00:02:19;;;;;;;;;;;;;;;18.14;100.00;95847.25;1039323;28;19917;-69
2022/06/16 00:02:50;;;;;;;;;;;;;;;18.14;100.00;95847.25;1044080;28;19919;-71
2022/06/16 00:03:20;;;;;;;;;;;;;;;18.11;100.00;95847.06;1036231;28;19919;-72
2022/06/16 00:03:52;;;;;;;;;;;;;;;18.09;100.00;95844.72;1035558;28;19913;-73
2022/06/16 00:04:23;;;;;;;;;;;;;;;18.08;100.00;95845.81;1035799;28;20340;-70
2022/06/16 00:04:53;;;;;;;;;;;;;;;18.09;100.00;95846.59;1034863;28;20457;-71
2022/06/16 00:05:28;;;;;;;;;;;;;;;18.06;100.00;95849.84;1028499;28;19920;-71
2022/06/16 00:05:59;;;;;;;;;;;;;;;18.05;100.00;95843.75;1027800;28;20026;-70
2022/06/16 00:06:34;;;;;;;;;;;;;;;18.03;100.00;95845.94;1031851;28;19913;-71
2022/06/16 00:07:11;;;;;;;;;;;;;;;18.01;100.00;95850.00;1034986;28;20352;-70
2022/06/16 00:07:42;;;;;;;;;;;;;;;18.01;100.00;95853.44;1033560;28;19936;-71
2022/06/16 00:08:14;;;;;;;;;;;;;;;18.00;100.00;95846.53;1037845;28;19929;-70
2022/06/16 00:08:44;;;;;;;;;;;;;;;17.99;100.00;95850.28;1039615;28;19920;-69
2022/06/16 00:09:15;;;;;;;;;;;;;;;17.96;100.00;95845.59;1039802;28;19957;-71
2022/06/16 00:09:45;;;;;;;;;;;;;;;17.97;100.00;95851.69;1039630;28;20237;-70
2022/06/16 00:10:16;;;;;;;;;;;;;;;17.93;100.00;95835.59;1039843;28;19980;-72
2022/06/16 00:11:36;;;;;;;;;;;;;;;17.94;100.00;95845.13;1043795;28;19919;-71
2022/06/16 00:12:09;;;;;;;;;;;;;;;17.96;100.00;95845.59;1043549;28;20333;-73
2022/06/16 00:12:40;;;;;;;;;;;;;;;17.96;100.00;95850.13;1044137;28;20008;-70
2022/06/16 00:13:11;;;;;;;;;;;;;;;17.99;100.00;95844.97;1044110;28;19913;-71
2022/06/16 00:13:41;;;;;;;;;;;;;;;18.00;100.00;95841.22;1039749;28;19917;-73
2022/06/16 00:14:12;;;;;;;;;;;;;;;18.03;100.00;95842.50;1039784;28;20012;-71
2022/06/16 00:14:43;;;;;;;;;;;;;;;18.01;100.00;95842.03;1039693;28;19913;-71
2022/06/16 00:15:15;;;;;;;;;;;;;;;18.03;100.00;95840.63;1035891;28;19921;-72
2022/06/16 00:15:45;;;;;;;;;;;;;;;18.03;100.00;95840.63;1033115;28;19906;-74
2022/06/16 00:16:16;;;;;;;;;;;;;;;18.04;100.00;95836.91;1031526;28;20351;-69
2022/06/16 00:16:47;;;;;;;;;;;;;;;18.05;100.00;95835.03;1035268;28;20272;-70
2022/06/16 00:17:17;;;;;;;;;;;;;;;18.04;100.00;95844.88;1040043;28;19967;-70
2022/06/16 00:17:48;;;;;;;;;;;;;;;18.01;100.00;95837.50;1039590;28;20389;-70
2022/06/16 00:18:21;;;;;;;;;;;;;;;18.05;100.00;95835.78;1039444;28;20480;-71
2022/06/16 00:18:52;;;;;;;;;;;;;;;18.04;100.00;95834.25;1039815;28;19942;-73
2022/06/16 00:19:22;;;;;;;;;;;;;;;18.04;100.00;95836.09;1039822;28;19917;-71
2022/06/16 00:19:52;;;;;;;;;;;;;;;18.02;100.00;95833.75;1039509;28;19913;-72
2022/06/16 00:20:23;;;;;;;;;;;;;;;18.01;100.00;95842.81;1038660;28;20394;-71
2022/06/16 00:20:54;;;;;;;;;;;;;;;18.00;100.00;95841.22;1031640;28;19910;-72
2022/06/16 00:21:24;;;;;;;;;;;;;;;17.98;100.00;95832.03;1031616;28;20030;-71
2022/06/16 00:21:54;;;;;;;;;;;;;;;17.98;100.00;95848.75;1027710;28;20426;-70
2022/06/16 00:22:28;;;;;;;;;;;;;;;17.98;100.00;95838.13;1031746;28;19957;-70
2022/06/16 00:22:58;;;;;;;;;;;;;;;17.99;100.00;95842.34;1035642;28;19913;-70
2022/06/16 00:23:29;;;;;;;;;;;;;;;17.99;100.00;95844.97;1036202;28;19909;-69
2022/06/16 00:24:00;;;;;;;;;;;;;;;17.99;100.00;95850.28;1035537;28;19917;-73
2022/06/16 00:24:31;;;;;;;;;;;;;;;17.97;100.00;95843.72;1035610;28;19937;-69
2022/06/16 00:25:01;;;;;;;;;;;;;;;17.97;100.00;95841.06;1031620;28;19910;-71
2022/06/16 00:25:32;;;;;;;;;;;;;;;17.97;100.00;95836.53;1031741;28;19910;-71
2022/06/16 00:26:04;;;;;;;;;;;;;;;17.95;100.00;95838.72;1031431;28;19921;-71
2022/06/16 00:26:34;;;;;;;;;;;;;;;17.94;100.00;95846.97;1027827;28;19917;-73
2022/06/16 00:27:05;;;;;;;;;;;;;;;17.93;100.00;95843.56;1027391;28;20494;-70
2022/06/16 00:27:36;;;;;;;;;;;;;;;17.88;100.00;95847.13;1023886;28;19986;-70
2022/06/16 00:28:06;;;;;;;;;;;;;;;17.88;100.00;95844.47;1027813;28;20363;-70
2022/06/16 00:28:37;;;;;;;;;;;;;;;17.89;100.00;95840.72;1027333;28;20326;-70
2022/06/16 00:29:07;;;;;;;;;;;;;;;17.89;100.00;95839.94;1027992;28;19957;-71
2022/06/16 00:29:38;;;;;;;;;;;;;;;17.88;100.00;95839.16;1031572;28;19910;-71
2022/06/16 00:30:09;;;;;;;;;;;;;;;17.88;100.00;95846.34;1031658;28;19910;-68
2022/06/16 00:30:40;;;;;;;;;;;;;;;17.87;100.00;95836.81;1035309;28;19942;-69
2022/06/16 00:31:11;;;;;;;;;;;;;;;17.84;100.00;95842.72;1034879;28;20004;-69
2022/06/16 00:31:41;;;;;;;;;;;;;;;17.84;100.00;95843.53;1035418;28;19910;-70
2022/06/16 00:32:11;;;;;;;;;;;;;;;17.85;100.00;95844.31;1035537;28;19927;-75
2022/06/16 00:32:42;;;;;;;;;;;;;;;17.83;100.00;95841.94;1043726;28;19928;-71
2022/06/16 00:33:13;;;;;;;;;;;;;;;17.83;100.00;95841.16;1043948;28;19955;-69
2022/06/16 00:33:43;;;;;;;;;;;;;;;17.83;100.00;95844.59;1039764;28;19921;-74
2022/06/16 00:34:14;;;;;;;;;;;;;;;17.85;100.00;95836.34;1028472;28;19918;-70
2022/06/16 00:34:44;;;;;;;;;;;;;;;17.86;100.00;95835.25;1027522;28;19914;-70
2022/06/16 00:35:14;;;;;;;;;;;;;;;17.86;100.00;95836.03;1027599;28;19921;-73
2022/06/16 00:35:45;;;;;;;;;;;;;;;17.84;100.00;95840.06;1026415;28;20001;-70
2022/06/16 00:36:18;;;;;;;;;;;;;;;17.82;100.00;95834.31;1039794;28;19976;-69
2022/06/16 00:36:48;;;;;;;;;;;;;;;17.82;100.00;95839.63;1031239;28;20401;-69
2022/06/16 00:37:19;;;;;;;;;;;;;;;17.80;100.00;95842.56;1031857;28;19971;-70
2022/06/16 00:37:49;;;;;;;;;;;;;;;17.80;100.00;95847.09;1035688;28;19972;-70
2022/06/16 00:38:20;;;;;;;;;;;;;;;17.77;100.00;95842.38;1035855;28;19933;-69
2022/06/16 00:38:50;;;;;;;;;;;;;;;17.73;100.00;95842.19;1044027;28;19920;-70
2022/06/16 00:39:21;;;;;;;;;;;;;;;17.72;100.00;95837.19;1043939;28;19922;-71
2022/06/16 00:39:51;;;;;;;;;;;;;;;17.69;100.00;95841.22;1044108;28;20337;-69
2022/06/16 00:40:22;;;;;;;;;;;;;;;17.67;100.00;95843.41;1044127;28;19917;-70
2022/06/16 00:40:53;;;;;;;;;;;;;;;17.64;100.00;95850.13;1043897;28;19921;-70
2022/06/16 00:41:23;;;;;;;;;;;;;;;17.63;100.00;95837.91;1039694;28;19921;-70
2022/06/16 00:42:05;;;;;;;;;;;;;;;17.65;100.00;95842.94;1039511;28;20698;-72
2022/06/16 00:42:35;;;;;;;;;;;;;;;17.64;100.00;95844.81;1031185;28;20166;-70
2022/06/16 00:43:08;;;;;;;;;;;;;;;17.65;100.00;95841.06;1032955;28;19918;-70
2022/06/16 00:43:39;;;;;;;;;;;;;;;17.64;100.00;95839.50;1031717;28;19925;-72
2022/06/16 00:44:16;;;;;;;;;;;;;;;17.62;100.00;95836.38;1032162;28;19948;-70
2022/06/16 00:44:51;;;;;;;;;;;;;;;17.61;100.00;95834.03;1035464;28;20012;-70
2022/06/16 00:45:40;;;;;;;;;;;;;;;17.62;100.00;95835.59;1033204;28;19918;-71
2022/06/16 00:46:12;;;;;;;;;;;;;;;17.61;100.00;95839.34;1035337;28;20480;-71
2022/06/16 00:46:43;;;;;;;;;;;;;;;17.59;100.00;95836.97;1034963;28;19917;-72
2022/06/16 00:47:14;;;;;;;;;;;;;;;17.57;100.00;95833.84;1034404;28;20582;-72
2022/06/16 00:47:45;;;;;;;;;;;;;;;17.56;100.00;95837.56;1031488;28;19989;-70
2022/06/16 00:48:23;;;;;;;;;;;;;;;17.58;100.00;95835.41;1027720;28;19918;-71
2022/06/16 00:48:56;;;;;;;;;;;;;;;17.60;100.00;95833.22;1024510;28;20030;-70
2022/06/16 00:49:30;;;;;;;;;;;;;;;17.60;100.00;95835.88;1029123;28;20442;-71
2022/06/16 00:50:03;;;;;;;;;;;;;;;17.60;100.00;95837.75;1027424;28;19914;-72
2022/06/16 00:50:33;;;;;;;;;;;;;;;17.64;100.00;95834.19;1022090;28;19915;-70
2022/06/16 00:51:07;;;;;;;;;;;;;;;17.57;100.00;95838.34;1020921;28;19918;-72
2022/06/16 00:51:45;;;;;;;;;;;;;;;17.56;100.00;95837.56;1016288;29;20773;-71
2022/06/16 00:52:16;;;;;;;;;;;;;;;17.53;100.00;95838.19;1017847;29;20006;-70
2022/06/16 00:52:47;;;;;;;;;;;;;;;17.49;100.00;95837.22;1028568;28;20382;-72
2022/06/16 00:53:17;;;;;;;;;;;;;;;17.49;100.00;95831.91;1032641;28;19914;-73
2022/06/16 00:53:51;;;;;;;;;;;;;;;17.49;100.00;95841.75;1031591;28;19914;-70
2022/06/16 00:54:24;;;;;;;;;;;;;;;17.48;100.00;95835.66;1031921;28;19910;-69
2022/06/16 00:54:58;;;;;;;;;;;;;;;17.53;100.00;95838.19;1032326;28;19921;-69
2022/06/16 00:55:28;;;;;;;;;;;;;;;17.52;100.00;95839.28;1023390;29;19942;-70
2022/06/16 00:55:59;;;;;;;;;;;;;;;17.52;100.00;95838.50;1023319;29;19921;-68
2022/06/16 00:56:29;;;;;;;;;;;;;;;17.50;100.00;95832.69;1023958;28;19915;-71
2022/06/16 00:57:05;;;;;;;;;;;;;;;17.50;100.00;95838.00;1027406;28;19914;-70
2022/06/16 00:57:42;;;;;;;;;;;;;;;17.49;100.00;95842.53;1040279;28;19935;-72
2022/06/16 00:58:13;;;;;;;;;;;;;;;17.49;100.00;95831.16;1039660;28;19959;-73
2022/06/16 00:58:45;;;;;;;;;;;;;;;17.43;100.00;95830.47;1035565;28;20401;-71
2022/06/16 00:59:16;;;;;;;;;;;;;;;17.47;100.00;95833.31;1031333;28;19917;-71
2022/06/16 00:59:46;;;;;;;;;;;;;;;17.50;100.00;95828.19;1031605;28;19920;-73
2022/06/16 01:00:23;;;;;;;;;;;;;;;17.47;100.00;95834.13;1035876;28;19910;-70
2022/06/16 01:00:56;;;;;;;;;;;;;;;17.45;100.00;95836.28;1036827;28;19910;-69
2022/06/16 01:01:26;;;;;;;;;;;;;;;17.44;100.00;95834.72;1039402;28;20377;-72
2022/06/16 01:01:57;;;;;;;;;;;;;;;17.39;100.00;95832.19;1039348;28;19916;-75
2022/06/16 01:02:30;;;;;;;;;;;;;;;17.38;100.00;95835.94;1041105;28;19923;-70
2022/06/16 01:03:00;;;;;;;;;;;;;;;17.38;100.00;95830.63;1043894;28;19943;-71
2022/06/16 01:05:09;;;;;;;;;;;;;;;17.44;100.00;95835.50;1044044;28;19960;-71
2022/06/16 01:06:36;;;;;;;;;;;;;;;17.40;100.00;95829.25;1035035;28;20018;-70
2022/06/16 01:07:08;;;;;;;;;;;;;;;17.34;100.00;95825.13;1024840;28;20354;-70
2022/06/16 01:07:40;;;;;;;;;;;;;;;17.32;100.00;95826.53;1026879;28;19930;-69
2022/06/16 01:08:12;;;;;;;;;;;;;;;17.30;100.00;95823.38;1018886;29;19954;-69
2022/06/16 01:08:43;;;;;;;;;;;;;;;17.28;100.00;95825.56;1015211;29;19923;-70
2022/06/16 01:09:17;;;;;;;;;;;;;;;17.26;100.00;95828.50;1015036;29;20043;-73
2022/06/16 01:09:48;;;;;;;;;;;;;;;17.22;100.00;95824.13;1020898;28;19925;-72
2022/06/16 01:10:18;;;;;;;;;;;;;;;17.18;100.00;95832.69;1028374;28;19914;-69
2022/06/16 01:10:49;;;;;;;;;;;;;;;17.15;100.00;95835.94;1027342;28;19993;-69
2022/06/16 01:14:14;;;;;;;;;;;;;;;17.20;100.00;95821.75;1034908;28;19917;-71
2022/06/16 01:14:44;;;;;;;;;;;;;;;17.19;100.00;95826.28;1027000;28;19918;-70
2022/06/16 01:15:17;;;;;;;;;;;;;;;17.18;100.00;95827.38;1027327;28;19918;-72
2022/06/16 01:16:06;;;;;;;;;;;;;;;17.17;100.00;95830.34;1030716;28;20008;-73
2022/06/16 01:16:37;;;;;;;;;;;;;;;17.22;100.00;95826.78;1036963;28;19913;-71
2022/06/16 01:17:14;;;;;;;;;;;;;;;17.27;100.00;95823.97;1035397;28;20604;-70
2022/06/16 01:17:53;;;;;;;;;;;;;;;17.26;100.00;95817.91;1031199;28;19910;-73
2022/06/16 01:18:33;;;;;;;;;;;;;;;17.26;100.00;95827.72;1026932;28;20367;-70
2022/06/16 01:19:29;;;;;;;;;;;;;;;17.20;100.00;95819.09;1023301;29;20289;-72
2022/06/16 01:20:00;;;;;;;;;;;;;;;17.23;100.00;95823.03;1027361;28;20299;-70
2022/06/16 01:20:49;;;;;;;;;;;;;;;17.20;100.00;95825.22;1030963;28;19914;-70
2022/06/16 01:21:20;;;;;;;;;;;;;;;17.20;100.00;95819.91;1031139;28;19936;-73
2022/06/16 01:21:50;;;;;;;;;;;;;;;17.24;100.00;95825.41;1031301;28;19917;-71
2022/06/16 01:22:35;;;;;;;;;;;;;;;17.26;100.00;95830.38;1037278;28;19920;-73
2022/06/16 01:23:24;;;;;;;;;;;;;;;17.26;100.00;95823.22;1041582;28;19916;-71
2022/06/16 01:24:07;;;;;;;;;;;;;;;17.25;100.00;95832.25;1043677;28;19913;-70
2022/06/16 01:24:50;;;;;;;;;;;;;;;17.26;100.00;95836.47;1043598;28;20000;-72
2022/06/16 01:25:49;;;;;;;;;;;;;;;17.29;100.00;95832.44;1037981;28;19919;-70
2022/06/16 01:26:22;;;;;;;;;;;;;;;17.28;100.00;95841.47;1035198;28;19909;-70
2022/06/16 01:26:53;;;;;;;;;;;;;;;17.28;100.00;95831.66;1035324;28;19919;-70
2022/06/16 01:27:27;;;;;;;;;;;;;;;17.29;100.00;95833.22;1042045;28;19932;-71
2022/06/16 01:28:17;;;;;;;;;;;;;;;17.27;100.00;95826.63;1043799;28;19908;-70
2022/06/16 01:28:57;;;;;;;;;;;;;;;17.27;100.00;95834.59;1039144;28;19933;-71
2022/06/16 01:29:30;;;;;;;;;;;;;;;17.24;100.00;95832.56;1039227;28;19909;-71
2022/06/16 01:30:03;;;;;;;;;;;;;;;17.24;100.00;95836.00;1039373;28;20336;-71
2022/06/16 01:30:37;;;;;;;;;;;;;;;17.23;100.00;95842.38;1033549;28;20417;-70
2022/06/16 01:31:09;;;;;;;;;;;;;;;17.23;100.00;95836.28;1029647;28;19913;-69
2022/06/16 01:31:40;;;;;;;;;;;;;;;17.23;100.00;95836.28;1018951;29;19918;-70
2022/06/16 01:32:11;;;;;;;;;;;;;;;17.20;100.00;95835.81;1020568;28;19990;-69
2022/06/16 01:32:50;;;;;;;;;;;;;;;17.20;100.00;95841.13;1031324;28;19906;-71
2022/06/16 01:33:44;;;;;;;;;;;;;;;17.19;100.00;95838.75;1038186;28;19961;-73
2022/06/16 01:34:20;;;;;;;;;;;;;;;17.19;100.00;95841.41;1032667;28;19950;-70
2022/06/16 01:34:57;;;;;;;;;;;;;;;17.18;100.00;95839.84;1035167;28;19939;-70
2022/06/16 01:35:46;;;;;;;;;;;;;;;17.20;100.00;95842.97;1035108;28;19912;-71
2022/06/16 01:36:36;;;;;;;;;;;;;;;17.20;100.00;95846.44;1035137;28;19921;-73
2022/06/16 01:37:27;;;;;;;;;;;;;;;17.18;100.00;95848.59;1043375;28;19912;-72
2022/06/16 01:38:06;;;;;;;;;;;;;;;17.23;100.00;95849.53;1031096;28;19982;-70
2022/06/16 01:38:56;;;;;;;;;;;;;;;17.24;100.00;95845.84;1031162;28;20384;-71
2022/06/16 01:39:37;;;;;;;;;;;;;;;17.22;100.00;95853.28;1030812;28;20377;-71
2022/06/16 01:40:22;;;;;;;;;;;;;;;17.20;100.00;95850.94;1031267;28;20730;-72
2022/06/16 01:41:02;;;;;;;;;;;;;;;17.19;100.00;95850.16;1031076;28;19914;-71
2022/06/16 01:41:33;;;;;;;;;;;;;;;17.19;100.00;95844.84;1031157;28;19910;-71
2022/06/16 01:42:12;;;;;;;;;;;;;;;17.18;100.00;95845.94;1033181;28;19945;-70
2022/06/16 01:42:49;;;;;;;;;;;;;;;17.17;100.00;95844.38;1026474;28;19924;-70
2022/06/16 01:43:19;;;;;;;;;;;;;;;17.18;100.00;95847.81;1028955;28;20470;-71
2022/06/16 01:43:52;;;;;;;;;;;;;;;17.16;100.00;95845.44;1031140;28;19910;-71
2022/06/16 01:44:24;;;;;;;;;;;;;;;17.15;100.00;95845.75;1033454;28;20307;-73
2022/06/16 01:44:57;;;;;;;;;;;;;;;17.13;100.00;95840.75;1035025;28;19988;-70
2022/06/16 01:45:28;;;;;;;;;;;;;;;17.12;100.00;95841.06;1031085;28;20400;-71
2022/06/16 01:46:00;;;;;;;;;;;;;;;17.12;100.00;95843.72;1031066;28;19973;-68
2022/06/16 01:46:32;;;;;;;;;;;;;;;17.11;100.00;95842.16;1030248;28;19996;-70
2022/06/16 01:47:05;;;;;;;;;;;;;;;17.08;100.00;95843.53;1031099;28;19913;-73
2022/06/16 01:47:36;;;;;;;;;;;;;;;17.05;100.00;95844.13;1028775;28;19941;-70
2022/06/16 01:48:08;;;;;;;;;;;;;;;17.04;100.00;95842.56;1031959;28;19917;-72
2022/06/16 01:48:40;;;;;;;;;;;;;;;17.05;100.00;95840.69;1030922;28;20004;-69
2022/06/16 01:49:15;;;;;;;;;;;;;;;17.04;100.00;95844.44;1026457;28;19968;-68
2022/06/16 01:49:47;;;;;;;;;;;;;;;17.02;100.00;95838.66;1019990;29;20387;-70
2022/06/16 01:50:22;;;;;;;;;;;;;;;17.02;100.00;95836.78;1022334;28;20332;-70
2022/06/16 01:50:54;;;;;;;;;;;;;;;17.02;100.00;95841.28;1028640;28;19936;-71
2022/06/16 01:51:28;;;;;;;;;;;;;;;17.01;100.00;95842.38;1024259;28;19913;-71
2022/06/16 01:52:01;;;;;;;;;;;;;;;16.98;100.00;95838.47;1027922;28;19922;-68
2022/06/16 01:52:41;;;;;;;;;;;;;;;16.96;100.00;95840.63;1026941;28;19925;-72
2022/06/16 01:53:17;;;;;;;;;;;;;;;16.96;100.00;95840.63;1029393;28;19945;-71
2022/06/16 01:53:52;;;;;;;;;;;;;;;16.95;100.00;95836.41;1031363;28;19922;-70
2022/06/16 01:54:27;;;;;;;;;;;;;;;16.93;100.00;95835.91;1025233;28;19921;-72
2022/06/16 01:55:08;;;;;;;;;;;;;;;16.92;100.00;95835.13;1023120;29;19950;-70
2022/06/16 01:55:41;;;;;;;;;;;;;;;16.92;100.00;95835.13;1026064;28;20037;-72
2022/06/16 01:56:20;;;;;;;;;;;;;;;16.89;100.00;95829.66;1032243;28;19954;-73
2022/06/16 01:56:53;;;;;;;;;;;;;;;16.88;100.00;95833.41;1029929;28;19914;-71
2022/06/16 01:57:28;;;;;;;;;;;;;;;16.86;100.00;95833.69;1030999;28;19914;-74
2022/06/16 01:58:01;;;;;;;;;;;;;;;16.85;100.00;95834.78;1030852;28;19918;-72
2022/06/16 01:58:32;;;;;;;;;;;;;;;16.82;100.00;95832.72;1025535;28;19982;-73
2022/06/16 01:59:06;;;;;;;;;;;;;;;16.79;100.00;95835.19;1031172;28;20702;-72
2022/06/16 01:59:41;;;;;;;;;;;;;;;16.76;100.00;95833.13;1030849;28;19918;-75
2022/06/16 02:00:14;;;;;;;;;;;;;;;16.73;100.00;95832.63;1032203;28;19925;-72
2022/06/16 02:00:44;;;;;;;;;;;;;;;16.70;100.00;95833.22;1035285;28;19917;-71
2022/06/16 02:01:15;;;;;;;;;;;;;;;16.69;100.00;95825.56;1031936;28;20000;-72
2022/06/16 02:01:47;;;;;;;;;;;;;;;16.68;100.00;95830.09;1031215;28;20383;-74
2022/06/16 02:02:18;;;;;;;;;;;;;;;16.66;100.00;95840.19;1030164;28;19914;-76
2022/06/16 02:02:52;;;;;;;;;;;;;;;16.62;100.00;95831.28;1023340;28;20396;-71
2022/06/16 02:03:25;;;;;;;;;;;;;;;16.58;100.00;95835.59;1023134;29;19918;-74
2022/06/16 02:04:12;;;;;;;;;;;;;;;16.55;100.00;95828.25;1023067;29;19918;-73
2022/06/16 02:04:42;;;;;;;;;;;;;;;16.50;100.00;95838.97;1027112;28;20039;-73
2022/06/16 02:05:12;;;;;;;;;;;;;;;16.49;100.00;95837.38;1033222;28;20211;-73
2022/06/16 02:05:47;;;;;;;;;;;;;;;16.46;100.00;95837.97;1031019;28;20318;-72
2022/06/16 02:06:19;;;;;;;;;;;;;;;16.43;100.00;95843.88;1028412;28;19985;-73
2022/06/16 02:06:50;;;;;;;;;;;;;;;16.40;100.00;95836.53;1031450;28;20419;-72
2022/06/16 02:07:31;;;;;;;;;;;;;;;16.40;100.00;95844.47;1020378;29;19915;-72
2022/06/16 02:08:06;;;;;;;;;;;;;;;16.37;100.00;95845.06;1026219;28;19921;-72
2022/06/16 02:08:45;;;;;;;;;;;;;;;16.33;100.00;95839.59;1029508;28;20362;-72
2022/06/16 02:09:15;;;;;;;;;;;;;;;16.32;100.00;95842.50;1031392;28;19914;-71
2022/06/16 02:09:49;;;;;;;;;;;;;;;16.27;100.00;95832.81;1031443;28;19968;-73
2022/06/16 02:10:29;;;;;;;;;;;;;;;16.25;100.00;95835.75;1031262;28;19913;-73
2022/06/16 02:11:21;;;;;;;;;;;;;;;16.22;100.00;95833.69;1033765;28;20243;-72
2022/06/16 02:11:53;;;;;;;;;;;;;;;16.21;100.00;95831.34;1031252;28;19918;-70
2022/06/16 02:13:19;;;;;;;;;;;;;;;16.16;100.00;95839.38;1031326;28;19953;-71
2022/06/16 02:14:02;;;;;;;;;;;;;;;16.13;100.00;95835.47;1031170;28;19913;-72
2022/06/16 02:14:35;;;;;;;;;;;;;;;16.11;100.00;95831.56;1027850;28;20410;-72
2022/06/16 02:15:13;;;;;;;;;;;;;;;16.10;100.00;95830.00;1023352;29;20328;-72
2022/06/16 02:15:43;;;;;;;;;;;;;;;16.07;100.00;95835.88;1027236;28;19980;-75
2022/06/16 02:16:18;;;;;;;;;;;;;;;16.06;100.00;95829.00;1027600;28;19953;-74
2022/06/16 02:16:48;;;;;;;;;;;;;;;16.02;100.00;95832.22;1028861;28;20446;-71
2022/06/16 02:17:19;;;;;;;;;;;;;;;16.00;100.00;95837.06;1031402;28;19925;-71
2022/06/16 02:17:51;;;;;;;;;;;;;;;15.99;100.00;95837.31;1027526;28;19925;-70
2022/06/16 02:18:22;;;;;;;;;;;;;;;15.98;100.00;95838.41;1027522;28;19914;-70
2022/06/16 02:18:54;;;;;;;;;;;;;;;15.97;100.00;95836.84;1031774;28;19921;-71
2022/06/16 02:19:25;;;;;;;;;;;;;;;15.95;100.00;95839.00;1036016;28;20394;-69
2022/06/16 02:19:55;;;;;;;;;;;;;;;15.93;100.00;95838.53;1030727;28;19922;-69
2022/06/16 02:20:27;;;;;;;;;;;;;;;15.95;100.00;95845.06;1030025;28;20010;-72
2022/06/16 02:21:08;;;;;;;;;;;;;;;15.94;100.00;95837.44;1031274;28;19917;-72
2022/06/16 02:21:40;;;;;;;;;;;;;;;15.93;100.00;95841.97;1028983;28;19981;-71
2022/06/16 02:22:10;;;;;;;;;;;;;;;15.92;100.00;95837.72;1030729;28;20387;-70
2022/06/16 02:22:40;;;;;;;;;;;;;;;15.92;100.00;95836.94;1029617;28;19918;-70
2022/06/16 02:23:11;;;;;;;;;;;;;;;15.91;100.00;95832.72;1027603;28;20362;-70
2022/06/16 02:23:41;;;;;;;;;;;;;;;15.91;100.00;95830.88;1029272;28;19948;-69
2022/06/16 02:24:14;;;;;;;;;;;;;;;15.90;100.00;95831.94;1035554;28;20390;-72
2022/06/16 02:24:45;;;;;;;;;;;;;;;15.89;100.00;95827.72;1035595;28;20436;-72
2022/06/16 02:25:15;;;;;;;;;;;;;;;15.91;100.00;95827.44;1035362;28;19918;-72
2022/06/16 02:25:46;;;;;;;;;;;;;;;15.92;100.00;95834.28;1035433;28;19967;-72
2022/06/16 02:26:17;;;;;;;;;;;;;;;15.91;100.00;95828.22;1031888;28;20370;-72
2022/06/16 02:26:47;;;;;;;;;;;;;;;15.89;100.00;95827.72;1035690;28;19921;-71
2022/06/16 02:27:18;;;;;;;;;;;;;;;15.88;100.00;95828.03;1033111;28;19959;-72
2022/06/16 02:27:49;;;;;;;;;;;;;;;15.89;100.00;95824.28;1031679;28;19914;-68
2022/06/16 02:28:20;;;;;;;;;;;;;;;15.88;100.00;95828.03;1035513;28;20398;-66
2022/06/16 02:28:54;;;;;;;;;;;;;;;15.88;100.00;95835.97;1031063;28;20740;-70
2022/06/16 02:29:29;;;;;;;;;;;;;;;15.87;100.00;95831.75;1032095;28;19914;-68
2022/06/16 02:29:59;;;;;;;;;;;;;;;15.87;100.00;95831.75;1031401;28;19910;-69
2022/06/16 02:30:31;;;;;;;;;;;;;;;15.85;100.00;95834.69;1031596;28;20418;-70
2022/06/16 02:31:21;;;;;;;;;;;;;;;15.86;100.00;95830.16;1032222;28;19922;-71
2022/06/16 02:32:00;;;;;;;;;;;;;;;15.87;100.00;95832.53;1034075;28;19922;-69
2022/06/16 02:32:36;;;;;;;;;;;;;;;15.87;100.00;95831.75;1035274;28;19918;-74
2022/06/16 02:33:33;;;;;;;;;;;;;;;15.88;100.00;95826.16;1039580;28;19944;-69
2022/06/16 02:34:16;;;;;;;;;;;;;;;15.88;100.00;95822.72;1021402;29;19925;-70
2022/06/16 02:34:46;;;;;;;;;;;;;;;15.88;100.00;95822.72;1028859;28;19922;-71
2022/06/16 02:35:17;;;;;;;;;;;;;;;15.89;100.00;95817.13;1035379;28;19945;-71
2022/06/16 02:35:54;;;;;;;;;;;;;;;15.91;100.00;95816.84;1037321;28;19920;-73
2022/06/16 02:36:43;;;;;;;;;;;;;;;15.89;100.00;95817.13;1039703;28;19964;-74
2022/06/16 02:37:13;;;;;;;;;;;;;;;15.92;100.00;95818.41;1039596;28;20060;-70
2022/06/16 02:37:46;;;;;;;;;;;;;;;15.90;100.00;95816.06;1039513;28;20448;-71
2022/06/16 02:38:43;;;;;;;;;;;;;;;15.90;100.00;95813.44;1035302;28;20387;-72
2022/06/16 02:39:20;;;;;;;;;;;;;;;15.88;100.00;95815.56;1035188;28;19913;-69
2022/06/16 02:40:23;;;;;;;;;;;;;;;15.87;100.00;95821.16;1030988;28;19922;-72
2022/06/16 02:40:57;;;;;;;;;;;;;;;15.86;100.00;95819.59;1033158;28;19925;-72
2022/06/16 02:41:36;;;;;;;;;;;;;;;15.85;100.00;95818.81;1035288;28;19913;-73
2022/06/16 02:42:16;;;;;;;;;;;;;;;15.87;100.00;95821.16;1030899;28;20298;-74
2022/06/16 02:42:46;;;;;;;;;;;;;;;15.85;100.00;95823.31;1034144;28;20375;-72
2022/06/16 02:43:22;;;;;;;;;;;;;;;15.87;100.00;95815.88;1035465;28;19913;-74
2022/06/16 02:44:04;;;;;;;;;;;;;;;15.89;100.00;95811.84;1037271;28;19920;-73
2022/06/16 02:44:39;;;;;;;;;;;;;;;15.93;100.00;95815.50;1039496;28;19917;-70
2022/06/16 02:45:16;;;;;;;;;;;;;;;15.91;100.00;95817.63;1035451;28;19968;-70
2022/06/16 02:46:05;;;;;;;;;;;;;;;15.92;100.00;95810.47;1030994;28;20024;-74
2022/06/16 02:46:54;;;;;;;;;;;;;;;15.92;100.00;95815.75;1027317;28;19914;-68
2022/06/16 02:48:21;;;;;;;;;;;;;;;15.91;100.00;95817.63;1036843;28;20334;-70
2022/06/16 02:49:03;;;;;;;;;;;;;;;15.91;100.00;95816.84;1035450;28;19913;-71
2022/06/16 02:49:42;;;;;;;;;;;;;;;15.92;100.00;95823.72;1031553;28;19929;-70
2022/06/16 02:50:16;;;;;;;;;;;;;;;15.95;100.00;95823.13;1035426;28;19922;-71
2022/06/16 02:51:01;;;;;;;;;;;;;;;15.96;100.00;95819.38;1030588;28;19922;-73
2022/06/16 02:51:43;;;;;;;;;;;;;;;15.96;100.00;95814.09;1026979;28;19914;-70
2022/06/16 02:52:30;;;;;;;;;;;;;;;15.93;100.00;95820.78;1022580;29;19910;-74
2022/06/16 02:53:18;;;;;;;;;;;;;;;15.97;100.00;95815.69;1034637;28;19906;-71
2022/06/16 02:54:29;;;;;;;;;;;;;;;15.95;100.00;95823.13;1035808;28;20283;-70
2022/06/16 02:55:26;;;;;;;;;;;;;;;15.90;100.00;95816.06;1039287;28;20397;-72
2022/06/16 02:55:57;;;;;;;;;;;;;;;15.97;100.00;95810.38;1036885;28;19905;-70
2022/06/16 02:56:27;;;;;;;;;;;;;;;15.98;100.00;95815.38;1039142;28;19910;-70
2022/06/16 02:57:01;;;;;;;;;;;;;;;15.99;100.00;95811.63;1039454;28;19909;-71
2022/06/16 02:57:35;;;;;;;;;;;;;;;16.03;100.00;95810.00;1039566;28;19948;-72
2022/06/16 02:58:05;;;;;;;;;;;;;;;16.03;100.00;95811.88;1037564;28;20032;-69
2022/06/16 02:58:36;;;;;;;;;;;;;;;16.04;100.00;95816.06;1027868;28;19963;-71
2022/06/16 02:59:26;;;;;;;;;;;;;;;16.04;100.00;95808.13;1029780;28;19916;-70
2022/06/16 02:59:58;;;;;;;;;;;;;;;16.00;100.00;95805.28;1026327;28;19950;-72
2022/06/16 03:00:31;;;;;;;;;;;;;;;16.03;100.00;95811.88;1030550;28;19985;-70
2022/06/16 03:01:01;;;;;;;;;;;;;;;16.02;100.00;95808.41;1031655;28;20560;-72
2022/06/16 03:01:32;;;;;;;;;;;;;;;16.07;100.00;95809.41;1026629;28;19911;-70
2022/06/16 03:02:03;;;;;;;;;;;;;;;16.08;100.00;95811.75;1022345;28;19907;-73
2022/06/16 03:02:35;;;;;;;;;;;;;;;16.08;100.00;95813.63;1022504;29;19910;-71
2022/06/16 03:03:14;;;;;;;;;;;;;;;16.07;100.00;95806.75;1022723;29;19914;-72
2022/06/16 03:04:01;;;;;;;;;;;;;;;16.09;100.00;95804.59;1024546;28;20612;-73
2022/06/16 03:04:35;;;;;;;;;;;;;;;16.10;100.00;95808.81;1033672;28;20634;-70
2022/06/16 03:05:06;;;;;;;;;;;;;;;16.06;100.00;95808.59;1034855;28;19941;-72
2022/06/16 03:05:36;;;;;;;;;;;;;;;16.09;100.00;95812.53;1030752;28;19910;-71